Belleville, New York
Current Conditions -  °F | °C
As of 8:56 PM on Thursday 18 Dec 2014 (Local Time) from KART Reporting Station
Haze Haze  
Wind Chill: 20°   Ceiling: 1600
Heat Index: 29°   Visibility: 5mi
Dew Point: 22°   Wind: 9mph
Humidity: 75%   Direction: 320°NW
Pressure: 30.02"   Gusts: NA
Location:  43.78°N, 76.12°W
Report Text: KART 190156Z AUTO 32008KT 5SM HZ BKN016 OVC022 M02/M06 A3002 RMK AO2 SLP172 T10171056
Loading
Personal Weather Stations






























Interactive Weather Map New forecast layout! Learn more

10-Day Weather Forecast

Advertisements
Track Severe Weather on mobile